createdAt,value
2019-03-20T00:00:49.719Z,997.679
2019-03-20T00:02:50.527Z,997.676
2019-03-20T00:04:50.392Z,997.678
2019-03-20T00:06:50.473Z,997.705
2019-03-20T00:08:50.458Z,997.716
2019-03-20T00:10:50.270Z,997.740
2019-03-20T00:12:50.145Z,997.753
2019-03-20T00:14:50.123Z,997.716
2019-03-20T00:16:50.262Z,997.730
2019-03-20T00:18:50.174Z,997.732
2019-03-20T00:20:50.076Z,997.732
2019-03-20T00:22:49.887Z,997.749
2019-03-20T00:24:49.766Z,997.787
2019-03-20T00:26:49.850Z,997.790
2019-03-20T00:28:49.770Z,997.772
2019-03-20T00:30:49.717Z,997.772
2019-03-20T00:32:49.644Z,997.800
2019-03-20T00:35:01.571Z,997.813
2019-03-20T00:36:49.716Z,997.778
2019-03-20T00:38:49.651Z,997.743
2019-03-20T00:40:50.548Z,997.743
2019-03-20T00:42:50.483Z,997.728
2019-03-20T00:44:50.405Z,997.741
2019-03-20T00:46:50.385Z,997.780
2019-03-20T00:48:50.347Z,997.786
2019-03-20T00:50:50.267Z,997.790
2019-03-20T00:52:50.190Z,997.784
2019-03-20T00:54:50.029Z,997.798
2019-03-20T00:56:50.004Z,997.821
2019-03-20T00:58:49.977Z,997.831
2019-03-20T01:00:49.988Z,997.824
2019-03-20T01:02:49.850Z,997.817
2019-03-20T01:04:50.139Z,997.826
2019-03-20T01:06:50.299Z,997.830
2019-03-20T01:08:50.096Z,997.824
2019-03-20T01:10:49.950Z,997.836
2019-03-20T01:12:50.065Z,997.839
2019-03-20T01:14:49.894Z,997.851
2019-03-20T01:16:49.930Z,997.851
2019-03-20T01:18:49.774Z,997.860
2019-03-20T01:20:49.721Z,997.850
2019-03-20T01:22:50.611Z,997.830
2019-03-20T01:24:50.507Z,997.835
2019-03-20T01:26:50.543Z,997.854
2019-03-20T01:28:50.451Z,997.882
2019-03-20T01:30:50.306Z,997.922
2019-03-20T01:32:50.188Z,997.945
2019-03-20T01:34:50.483Z,997.937
2019-03-20T01:36:50.416Z,997.923
2019-03-20T01:38:50.388Z,997.921
2019-03-20T01:40:50.316Z,997.890
2019-03-20T01:42:50.220Z,997.878
2019-03-20T01:44:50.112Z,997.887
2019-03-20T01:46:50.063Z,997.904
2019-03-20T01:48:49.912Z,997.917
2019-03-20T01:50:49.725Z,997.913
2019-03-20T01:52:49.682Z,997.902
2019-03-20T01:54:50.535Z,997.888
2019-03-20T01:56:50.578Z,997.869
2019-03-20T01:58:50.442Z,997.865
2019-03-20T02:00:50.355Z,997.860
2019-03-20T02:02:50.259Z,997.860
2019-03-20T02:04:50.572Z,997.880
2019-03-20T02:06:50.560Z,997.901
2019-03-20T02:08:50.444Z,997.910
2019-03-20T02:10:50.340Z,997.912
2019-03-20T02:12:50.304Z,997.898
2019-03-20T02:14:50.316Z,997.904
2019-03-20T02:16:50.428Z,997.906
2019-03-20T02:18:50.349Z,997.922
2019-03-20T02:20:50.290Z,997.948
2019-03-20T02:22:50.230Z,997.953
2019-03-20T02:24:50.289Z,997.993
2019-03-20T02:26:50.361Z,998.009
2019-03-20T02:28:50.322Z,998.031
2019-03-20T02:30:50.475Z,998.028
2019-03-20T02:32:50.493Z,998.034
2019-03-20T02:34:49.771Z,998.054
2019-03-20T02:36:49.867Z,998.071
2019-03-20T02:38:49.876Z,998.074
2019-03-20T02:40:49.829Z,998.079
2019-03-20T02:42:49.845Z,998.082
2019-03-20T02:44:49.632Z,998.092
2019-03-20T02:46:49.663Z,998.098
2019-03-20T02:48:50.501Z,998.086
2019-03-20T02:50:50.461Z,998.075
2019-03-20T02:52:50.285Z,998.085
2019-03-20T02:54:50.176Z,998.115
2019-03-20T02:56:50.274Z,998.111
2019-03-20T02:58:50.305Z,998.085
2019-03-20T03:00:50.283Z,998.069
2019-03-20T03:02:50.238Z,998.043
2019-03-20T03:04:50.538Z,998.037
2019-03-20T03:06:50.559Z,998.050
2019-03-20T03:08:49.717Z,998.044
2019-03-20T03:10:49.636Z,998.045
2019-03-20T03:12:50.559Z,998.034
2019-03-20T03:14:50.538Z,998.048
2019-03-20T03:16:49.756Z,998.041
2019-03-20T03:18:49.699Z,998.023
2019-03-20T03:20:50.635Z,998.023
2019-03-20T03:22:49.748Z,998.022
2019-03-20T03:24:50.588Z,998.009
2019-03-20T03:26:49.667Z,998.023
2019-03-20T03:28:50.483Z,998.018
2019-03-20T03:30:50.429Z,998.021
2019-03-20T03:32:50.353Z,997.991
2019-03-20T03:34:49.693Z,997.986
2019-03-20T03:36:49.659Z,998.013
2019-03-20T03:38:49.697Z,998.067
2019-03-20T03:40:50.585Z,998.082
2019-03-20T03:42:50.522Z,998.098
2019-03-20T03:44:50.390Z,998.120
2019-03-20T03:46:50.396Z,998.134
2019-03-20T03:48:50.327Z,998.160
2019-03-20T03:50:50.195Z,998.181
2019-03-20T03:52:50.201Z,998.200
2019-03-20T03:54:50.100Z,998.227
2019-03-20T03:56:50.137Z,998.267
2019-03-20T03:58:50.020Z,998.298
2019-03-20T04:00:49.925Z,998.316
2019-03-20T04:02:49.891Z,998.312
2019-03-20T04:04:50.104Z,998.313
2019-03-20T04:06:50.093Z,998.338
2019-03-20T04:08:49.908Z,998.336
2019-03-20T04:10:49.921Z,998.343
2019-03-20T04:12:49.815Z,998.339
2019-03-20T04:14:49.797Z,998.335
2019-03-20T04:16:49.828Z,998.346
2019-03-20T04:18:49.839Z,998.371
2019-03-20T04:20:49.777Z,998.377
2019-03-20T04:22:49.749Z,998.377
2019-03-20T04:24:50.593Z,998.408
2019-03-20T04:26:49.725Z,998.408
2019-03-20T04:28:49.717Z,998.431
2019-03-20T04:30:50.570Z,998.490
2019-03-20T04:32:50.415Z,998.490
2019-03-20T04:34:49.765Z,998.572
2019-03-20T04:36:49.888Z,998.585
2019-03-20T04:38:49.786Z,998.576
2019-03-20T04:40:49.602Z,998.572
2019-03-20T04:42:50.545Z,998.587
2019-03-20T04:44:50.523Z,998.598
2019-03-20T04:46:49.650Z,998.605
2019-03-20T04:48:50.513Z,998.621
2019-03-20T04:50:50.492Z,998.693
2019-03-20T04:52:50.393Z,998.745
2019-03-20T04:54:50.338Z,998.752
2019-03-20T04:56:50.314Z,998.779
2019-03-20T04:58:50.263Z,998.784
2019-03-20T05:00:50.107Z,998.765
2019-03-20T05:02:50.009Z,998.776
2019-03-20T05:04:50.264Z,998.776
2019-03-20T05:06:59.513Z,998.778
2019-03-20T05:08:50.458Z,998.776
2019-03-20T05:10:50.445Z,998.790
2019-03-20T05:12:50.354Z,998.784
2019-03-20T05:14:50.289Z,998.782
2019-03-20T05:16:50.262Z,998.788
2019-03-20T05:18:50.136Z,998.801
2019-03-20T05:20:50.129Z,998.810
2019-03-20T05:22:50.000Z,998.852
2019-03-20T05:24:49.939Z,998.891
2019-03-20T05:26:49.609Z,998.901
2019-03-20T05:28:50.523Z,998.922
2019-03-20T05:30:50.484Z,998.918
2019-03-20T05:32:50.350Z,998.925
2019-03-20T05:34:50.571Z,998.929
2019-03-20T05:36:50.612Z,998.959
2019-03-20T05:38:50.497Z,998.962
2019-03-20T05:40:50.361Z,998.987
2019-03-20T05:42:50.224Z,999.002
2019-03-20T05:44:50.110Z,999.041
2019-03-20T05:46:50.161Z,999.110
2019-03-20T05:48:50.053Z,999.129
2019-03-20T05:50:49.981Z,999.177
2019-03-20T05:52:49.930Z,999.176
2019-03-20T05:54:49.849Z,999.209
2019-03-20T05:56:49.962Z,999.212
2019-03-20T05:58:49.853Z,999.238
2019-03-20T06:00:49.698Z,999.251
2019-03-20T06:02:49.642Z,999.309
2019-03-20T06:04:49.913Z,999.332
2019-03-20T06:06:50.017Z,999.351
2019-03-20T06:08:49.953Z,999.372
2019-03-20T06:10:49.916Z,999.373
2019-03-20T06:12:49.818Z,999.375
2019-03-20T06:14:49.712Z,999.386
2019-03-20T06:16:49.791Z,999.386
2019-03-20T06:18:49.692Z,999.410
2019-03-20T06:20:49.684Z,999.421
2019-03-20T06:22:50.513Z,999.422
2019-03-20T06:24:50.447Z,999.436
2019-03-20T06:26:50.336Z,999.460
2019-03-20T06:28:50.328Z,999.454
2019-03-20T06:30:50.233Z,999.452
2019-03-20T06:32:50.212Z,999.446
2019-03-20T06:34:50.460Z,999.450
2019-03-20T06:36:49.894Z,999.457
2019-03-20T06:38:49.782Z,999.452
2019-03-20T06:40:50.593Z,999.503
2019-03-20T06:42:49.587Z,999.540
2019-03-20T06:44:50.545Z,999.544
2019-03-20T06:46:50.590Z,999.563
2019-03-20T06:48:50.425Z,999.558
2019-03-20T06:50:50.377Z,999.565
2019-03-20T06:52:50.256Z,999.534
2019-03-20T06:54:50.225Z,999.513
2019-03-20T06:56:50.215Z,999.501
2019-03-20T06:58:50.151Z,999.501
2019-03-20T07:00:50.087Z,999.585
2019-03-20T07:02:50.095Z,999.585
2019-03-20T07:04:50.509Z,999.622
2019-03-20T07:06:49.712Z,999.622
2019-03-20T07:08:49.817Z,999.625
2019-03-20T07:10:49.918Z,999.645
2019-03-20T07:12:50.081Z,999.661
2019-03-20T07:14:50.095Z,999.685
2019-03-20T07:16:50.402Z,999.685
2019-03-20T07:18:50.578Z,999.721
2019-03-20T07:20:50.580Z,999.718
2019-03-20T07:22:49.759Z,999.737
2019-03-20T07:24:49.847Z,999.757
2019-03-20T07:26:49.990Z,999.737
2019-03-20T07:28:50.097Z,999.738
2019-03-20T07:30:50.142Z,999.753
2019-03-20T07:32:50.227Z,999.774
2019-03-20T07:34:50.546Z,999.809
2019-03-20T07:36:49.832Z,999.841
2019-03-20T07:38:49.885Z,999.846
2019-03-20T07:40:49.881Z,999.839
2019-03-20T07:42:49.918Z,999.848
2019-03-20T07:44:50.015Z,999.872
2019-03-20T07:46:50.278Z,999.877
2019-03-20T07:48:50.388Z,999.881
2019-03-20T07:50:50.412Z,999.868
2019-03-20T07:52:50.483Z,999.855
2019-03-20T07:54:50.506Z,999.855
2019-03-20T07:56:49.813Z,999.881
2019-03-20T07:58:49.786Z,999.896
2019-03-20T08:00:49.855Z,999.939
2019-03-20T08:02:49.835Z,999.984
2019-03-20T08:04:50.283Z,999.986
2019-03-20T08:06:50.362Z,999.989
2019-03-20T08:08:50.472Z,999.979
2019-03-20T08:10:49.629Z,999.971
2019-03-20T08:12:49.683Z,999.966
2019-03-20T08:14:49.662Z,999.956
2019-03-20T08:16:49.941Z,999.981
2019-03-20T08:18:49.915Z,999.968
2019-03-20T08:20:50.017Z,999.942
2019-03-20T08:22:50.125Z,999.938
2019-03-20T08:24:50.188Z,999.933
2019-03-20T08:26:50.533Z,999.941
2019-03-20T08:28:50.546Z,999.955
2019-03-20T08:30:50.582Z,999.977
2019-03-20T08:32:49.617Z,999.972
2019-03-20T08:34:50.022Z,999.955
2019-03-20T08:36:50.226Z,999.959
2019-03-20T08:38:50.262Z,999.991
2019-03-20T08:40:50.360Z,999.984
2019-03-20T08:42:50.409Z,999.976
2019-03-20T08:44:50.514Z,999.960
2019-03-20T08:46:49.609Z,999.957
2019-03-20T08:48:49.673Z,999.980
2019-03-20T08:50:49.743Z,999.983
2019-03-20T08:52:49.866Z,999.999
2019-03-20T08:54:49.959Z,999.999
2019-03-20T08:56:50.079Z,999.983
2019-03-20T08:58:50.085Z,999.990
2019-03-20T09:00:50.121Z,1000.005
2019-03-20T09:02:50.348Z,1000.022
2019-03-20T09:04:49.847Z,1000.013
2019-03-20T09:06:50.004Z,1000.015
2019-03-20T09:08:50.150Z,1000.017
2019-03-20T09:10:50.151Z,1000.044
2019-03-20T09:12:50.263Z,1000.059
2019-03-20T09:14:50.304Z,1000.100
2019-03-20T09:16:50.564Z,1000.092
2019-03-20T09:18:50.563Z,1000.108
2019-03-20T09:20:49.645Z,1000.098
2019-03-20T09:22:49.789Z,1000.116
2019-03-20T09:24:49.958Z,1000.130
2019-03-20T09:26:50.139Z,1000.156
2019-03-20T09:28:50.174Z,1000.151
2019-03-20T09:30:50.228Z,1000.140
2019-03-20T09:32:50.259Z,1000.129
2019-03-20T09:34:49.612Z,1000.133
2019-03-20T09:36:49.842Z,1000.135
2019-03-20T09:38:49.808Z,1000.153
2019-03-20T09:40:49.803Z,1000.156
2019-03-20T09:42:50.276Z,1000.152
2019-03-20T09:44:50.342Z,1000.138
2019-03-20T09:46:50.432Z,1000.209
2019-03-20T09:48:50.523Z,1000.206
2019-03-20T09:50:49.689Z,1000.206
2019-03-20T09:52:50.385Z,1000.189
2019-03-20T09:54:50.443Z,1000.186
2019-03-20T09:56:49.644Z,1000.170
2019-03-20T09:58:49.692Z,1000.149
2019-03-20T10:00:49.696Z,1000.171
2019-03-20T10:02:49.767Z,1000.173
2019-03-20T10:04:50.108Z,1000.193
2019-03-20T10:06:50.267Z,1000.214
2019-03-20T10:08:54.744Z,1000.243
2019-03-20T10:10:49.781Z,1000.253
2019-03-20T10:12:49.971Z,1000.219
2019-03-20T10:14:50.046Z,1000.210
2019-03-20T10:16:50.254Z,1000.236
2019-03-20T10:18:50.328Z,1000.219
2019-03-20T10:20:50.371Z,1000.226
2019-03-20T10:22:50.510Z,1000.227
2019-03-20T10:24:50.618Z,1000.241
2019-03-20T10:26:49.806Z,1000.242
2019-03-20T10:28:49.891Z,1000.227
2019-03-20T10:30:49.979Z,1000.227
2019-03-20T10:32:50.067Z,1000.234
2019-03-20T10:34:50.398Z,1000.243
2019-03-20T10:36:50.596Z,1000.212
2019-03-20T10:38:50.798Z,1000.245
2019-03-20T10:40:50.223Z,1000.203
2019-03-20T10:42:50.247Z,1000.174
2019-03-20T10:44:50.270Z,1000.146
2019-03-20T10:46:50.408Z,1000.137
2019-03-20T10:48:50.568Z,1000.124
2019-03-20T10:50:49.636Z,1000.133
2019-03-20T10:52:49.821Z,1000.148
2019-03-20T10:54:49.822Z,1000.129
2019-03-20T10:56:50.015Z,1000.129
2019-03-20T10:58:50.274Z,1000.087
2019-03-20T11:00:50.303Z,1000.064
2019-03-20T11:02:50.374Z,1000.026
2019-03-20T11:04:49.935Z,1000.021
2019-03-20T11:06:50.068Z,1000.011
2019-03-20T11:08:50.230Z,1000.010
2019-03-20T11:10:50.254Z,1000.023
2019-03-20T11:12:50.305Z,1000.014
2019-03-20T11:14:50.393Z,1000.015
2019-03-20T11:16:49.631Z,1000.035
2019-03-20T11:18:49.724Z,1000.051
2019-03-20T11:20:49.799Z,1000.029
2019-03-20T11:22:49.807Z,1000.017
2019-03-20T11:24:50.116Z,999.979
2019-03-20T11:26:50.326Z,999.935
2019-03-20T11:28:50.433Z,999.925
2019-03-20T11:30:50.412Z,999.851
2019-03-20T11:32:50.502Z,999.833
2019-03-20T11:34:49.731Z,999.814
2019-03-20T11:36:49.939Z,999.816
2019-03-20T11:38:49.961Z,999.772
2019-03-20T11:40:50.098Z,999.731
2019-03-20T11:42:50.212Z,999.714
2019-03-20T11:44:50.326Z,999.656
2019-03-20T11:46:50.584Z,999.654
2019-03-20T11:48:50.541Z,999.635
2019-03-20T11:50:50.561Z,999.615
2019-03-20T11:52:49.648Z,999.623
2019-03-20T11:54:49.652Z,999.623
2019-03-20T11:56:49.785Z,999.624
2019-03-20T11:58:49.753Z,999.615
2019-03-20T12:00:49.803Z,999.558
2019-03-20T12:02:49.762Z,999.534
2019-03-20T12:04:50.168Z,999.495
2019-03-20T12:06:50.352Z,999.507
2019-03-20T12:08:50.418Z,999.499
2019-03-20T12:10:50.391Z,999.453
2019-03-20T12:12:50.421Z,999.439
2019-03-20T12:14:50.445Z,999.361
2019-03-20T12:16:49.685Z,999.329
2019-03-20T12:18:50.654Z,999.243
2019-03-20T12:20:49.709Z,999.196
2019-03-20T12:22:49.683Z,999.202
2019-03-20T12:24:49.805Z,999.201
2019-03-20T12:26:50.004Z,999.209
2019-03-20T12:28:49.999Z,999.212
2019-03-20T12:30:50.035Z,999.217
2019-03-20T12:32:50.137Z,999.204
2019-03-20T12:34:50.419Z,999.202
2019-03-20T12:36:49.746Z,999.168
2019-03-20T12:38:49.755Z,999.154
2019-03-20T12:40:49.929Z,999.100
2019-03-20T12:42:49.992Z,999.096
2019-03-20T12:44:50.104Z,999.092
2019-03-20T12:46:50.324Z,999.060
2019-03-20T12:48:50.413Z,999.001
2019-03-20T12:50:50.434Z,998.988
2019-03-20T12:52:50.407Z,999.008
2019-03-20T12:54:50.361Z,998.990
2019-03-20T12:56:49.642Z,998.978
2019-03-20T12:58:49.669Z,998.997
2019-03-20T13:00:49.743Z,998.977
2019-03-20T13:02:49.700Z,998.966
2019-03-20T13:04:50.142Z,998.980
2019-03-20T13:06:50.263Z,999.006
2019-03-20T13:08:50.286Z,998.963
2019-03-20T13:10:50.283Z,998.939
2019-03-20T13:12:50.349Z,998.967
2019-03-20T13:14:50.284Z,998.995
2019-03-20T13:16:50.489Z,998.970
2019-03-20T13:18:50.605Z,998.924
2019-03-20T13:20:49.789Z,998.905
2019-03-20T13:22:49.785Z,998.849
2019-03-20T13:24:49.678Z,998.847
2019-03-20T13:26:49.846Z,998.834
2019-03-20T13:28:49.955Z,998.872
2019-03-20T13:30:50.018Z,998.871
2019-03-20T13:32:50.035Z,998.840
2019-03-20T13:34:50.443Z,998.846
2019-03-20T13:36:50.521Z,998.850
2019-03-20T13:38:49.694Z,998.854
2019-03-20T13:40:49.779Z,998.866
2019-03-20T13:42:49.833Z,998.848
2019-03-20T13:44:49.817Z,998.822
2019-03-20T13:46:49.995Z,998.800
2019-03-20T13:48:49.994Z,998.778
2019-03-20T13:50:50.126Z,998.708
2019-03-20T13:52:50.246Z,998.714
2019-03-20T13:54:50.020Z,998.720
2019-03-20T13:56:49.736Z,998.720
2019-03-20T13:58:52.547Z,998.744
2019-03-20T14:00:50.089Z,998.759
2019-03-20T14:02:50.531Z,998.728
2019-03-20T14:04:50.262Z,998.699
2019-03-20T14:06:49.763Z,998.681
2019-03-20T14:08:50.118Z,998.670
2019-03-20T14:10:51.164Z,998.656
2019-03-20T14:12:49.782Z,998.610
2019-03-20T14:14:50.339Z,998.610
2019-03-20T14:16:50.137Z,998.589
2019-03-20T14:18:49.664Z,998.591
2019-03-20T14:20:50.267Z,998.588
2019-03-20T14:22:49.665Z,998.577
2019-03-20T14:24:49.968Z,998.585
2019-03-20T14:26:50.361Z,998.559
2019-03-20T14:28:50.510Z,998.558
2019-03-20T14:30:49.818Z,998.549
2019-03-20T14:32:49.972Z,998.539
2019-03-20T14:34:50.567Z,998.532
2019-03-20T14:36:50.036Z,998.540
2019-03-20T14:38:50.245Z,998.537
2019-03-20T14:40:50.377Z,998.564
2019-03-20T14:42:50.614Z,998.558
2019-03-20T14:44:52.018Z,998.539
2019-03-20T14:46:50.177Z,998.562
2019-03-20T14:48:50.209Z,998.573
2019-03-20T14:50:50.321Z,998.585
2019-03-20T14:52:50.487Z,998.600
2019-03-20T14:54:49.918Z,998.592
2019-03-20T14:56:50.136Z,998.602
2019-03-20T14:58:50.298Z,998.585
2019-03-20T15:00:50.318Z,998.560
2019-03-20T15:02:50.302Z,998.534
2019-03-20T15:04:49.666Z,998.518
2019-03-20T15:06:49.846Z,998.501
2019-03-20T15:08:49.917Z,998.486
2019-03-20T15:10:49.986Z,998.465
2019-03-20T15:12:50.031Z,998.460
2019-03-20T15:14:50.114Z,998.460
2019-03-20T15:16:50.389Z,998.502
2019-03-20T15:18:50.469Z,998.505
2019-03-20T15:20:50.451Z,998.488
2019-03-20T15:22:50.561Z,998.479
2019-03-20T15:24:50.633Z,998.483
2019-03-20T15:26:49.811Z,998.476
2019-03-20T15:28:49.795Z,998.484
2019-03-20T15:30:49.933Z,998.488
2019-03-20T15:32:49.964Z,998.491
2019-03-20T15:34:50.446Z,998.523
2019-03-20T15:36:50.602Z,998.514
2019-03-20T15:38:49.675Z,998.532
2019-03-20T15:40:56.701Z,998.532
2019-03-20T15:42:49.662Z,998.575
2019-03-20T15:44:49.859Z,998.579
2019-03-20T15:46:49.987Z,998.587
2019-03-20T15:48:49.962Z,998.600
2019-03-20T15:50:49.994Z,998.609
2019-03-20T15:52:50.046Z,998.644
2019-03-20T15:54:50.079Z,998.671
2019-03-20T15:56:50.588Z,998.676
2019-03-20T15:58:49.888Z,998.694
2019-03-20T16:00:49.957Z,998.708
2019-03-20T16:02:49.998Z,998.706
2019-03-20T16:04:50.417Z,998.691
2019-03-20T16:06:50.479Z,998.690
2019-03-20T16:08:50.407Z,998.697
2019-03-20T16:10:50.392Z,998.698
2019-03-20T16:12:50.598Z,998.693
2019-03-20T16:14:50.569Z,998.694
2019-03-20T16:16:50.528Z,998.657
2019-03-20T16:18:50.569Z,998.664
2019-03-20T16:20:49.707Z,998.663
2019-03-20T16:22:49.865Z,998.649
2019-03-20T16:24:49.952Z,998.635
2019-03-20T16:26:50.207Z,998.641
2019-03-20T16:28:50.232Z,998.660
2019-03-20T16:30:50.419Z,998.748
2019-03-20T16:32:50.587Z,998.753
2019-03-20T16:34:50.171Z,998.759
2019-03-20T16:36:50.298Z,998.747
2019-03-20T16:38:50.370Z,998.760
2019-03-20T16:40:49.597Z,998.758
2019-03-20T16:42:49.682Z,998.760
2019-03-20T16:44:49.682Z,998.758
2019-03-20T16:46:49.832Z,998.768
2019-03-20T16:48:49.910Z,998.745
2019-03-20T16:50:50.060Z,998.722
2019-03-20T16:52:50.281Z,998.733
2019-03-20T16:54:50.465Z,998.751
2019-03-20T16:56:50.574Z,998.767
2019-03-20T16:58:49.731Z,998.777
2019-03-20T17:00:49.870Z,998.777
2019-03-20T17:02:49.920Z,998.776
2019-03-20T17:04:50.182Z,998.784
2019-03-20T17:06:50.466Z,998.818
2019-03-20T17:08:49.680Z,998.828
2019-03-20T17:10:49.762Z,998.828
2019-03-20T17:12:50.077Z,998.823
2019-03-20T17:14:50.029Z,998.804
2019-03-20T17:16:50.307Z,998.835
2019-03-20T17:18:50.456Z,998.850
2019-03-20T17:20:49.614Z,998.886
2019-03-20T17:22:49.809Z,998.886
2019-03-20T17:24:49.940Z,998.954
2019-03-20T17:26:50.221Z,998.980
2019-03-20T17:28:50.443Z,998.980
2019-03-20T17:30:50.594Z,998.984
2019-03-20T17:32:49.801Z,998.969
2019-03-20T17:34:50.289Z,998.957
2019-03-20T17:36:50.459Z,998.957
2019-03-20T17:38:50.540Z,998.942
2019-03-20T17:40:49.637Z,998.926
2019-03-20T17:42:49.771Z,998.905
2019-03-20T17:44:49.954Z,998.877
2019-03-20T17:46:50.212Z,998.880
2019-03-20T17:48:50.155Z,998.903
2019-03-20T17:50:50.261Z,998.913
2019-03-20T17:52:50.447Z,998.914
2019-03-20T17:54:50.488Z,998.939
2019-03-20T17:56:49.652Z,998.972
2019-03-20T17:58:49.765Z,998.995
2019-03-20T18:00:49.972Z,999.036
2019-03-20T18:02:50.162Z,999.094
2019-03-20T18:04:50.594Z,999.094
2019-03-20T18:06:49.865Z,999.166
2019-03-20T18:08:50.024Z,999.175
2019-03-20T18:10:50.153Z,999.249
2019-03-20T18:12:50.283Z,999.292
2019-03-20T18:14:50.301Z,999.328
2019-03-20T18:16:50.555Z,999.341
2019-03-20T18:18:49.737Z,999.361
2019-03-20T18:20:49.651Z,999.372
2019-03-20T18:22:49.925Z,999.391
2019-03-20T18:24:50.045Z,999.423
2019-03-20T18:26:50.322Z,999.442
2019-03-20T18:28:50.390Z,999.464
2019-03-20T18:30:50.482Z,999.486
2019-03-20T18:32:49.663Z,999.503
2019-03-20T18:34:50.132Z,999.544
2019-03-20T18:36:50.312Z,999.554
2019-03-20T18:38:50.309Z,999.556
2019-03-20T18:40:50.415Z,999.570
2019-03-20T18:42:49.637Z,999.578
2019-03-20T18:44:49.644Z,999.615
2019-03-20T18:46:49.949Z,999.654
2019-03-20T18:48:50.030Z,999.645
2019-03-20T18:50:50.072Z,999.661
2019-03-20T18:52:50.117Z,999.669
2019-03-20T18:54:50.148Z,999.690
2019-03-20T18:56:50.401Z,999.693
2019-03-20T18:58:49.633Z,999.706
2019-03-20T19:00:50.593Z,999.717
2019-03-20T19:02:49.770Z,999.718
2019-03-20T19:04:50.424Z,999.701
2019-03-20T19:06:49.676Z,999.716
2019-03-20T19:08:49.882Z,999.736
2019-03-20T19:10:50.281Z,999.757
2019-03-20T19:12:50.598Z,999.774
2019-03-20T19:14:49.688Z,999.787
2019-03-20T19:16:49.998Z,999.813
2019-03-20T19:18:50.115Z,999.827
2019-03-20T19:20:50.216Z,999.827
2019-03-20T19:22:50.330Z,999.793
2019-03-20T19:24:50.416Z,999.781
2019-03-20T19:26:49.595Z,999.788
2019-03-20T19:28:49.695Z,999.794
2019-03-20T19:30:49.846Z,999.824
2019-03-20T19:32:49.908Z,999.854
2019-03-20T19:34:50.319Z,999.854
2019-03-20T19:38:50.032Z,999.908
2019-03-20T19:40:50.057Z,999.906
2019-03-20T19:42:50.098Z,999.899
2019-03-20T19:44:50.158Z,999.898
2019-03-20T19:46:50.370Z,999.898
2019-03-20T19:48:50.563Z,999.877
2019-03-20T19:50:50.538Z,999.905
2019-03-20T19:52:50.587Z,999.933
2019-03-20T19:54:50.602Z,999.944
2019-03-20T19:56:49.913Z,999.941
2019-03-20T19:58:49.964Z,999.972
2019-03-20T20:00:50.102Z,999.974
2019-03-20T20:02:50.231Z,999.974
2019-03-20T20:04:49.614Z,999.991
2019-03-20T20:06:49.797Z,1000.013
2019-03-20T20:08:49.829Z,1000.061
2019-03-20T20:10:49.884Z,1000.078
2019-03-20T20:12:49.998Z,1000.138
2019-03-20T20:14:50.026Z,1000.158
2019-03-20T20:16:50.213Z,1000.179
2019-03-20T20:18:50.424Z,1000.179
2019-03-20T20:20:50.515Z,1000.169
2019-03-20T20:22:50.583Z,1000.179
2019-03-20T20:24:50.577Z,1000.174
2019-03-20T20:26:49.756Z,1000.175
2019-03-20T20:28:49.866Z,1000.188
2019-03-20T20:30:49.931Z,1000.185
2019-03-20T20:32:50.124Z,1000.185
2019-03-20T20:34:49.727Z,1000.191
2019-03-20T20:36:50.012Z,1000.178
2019-03-20T20:38:51.287Z,1000.170
2019-03-20T20:40:50.347Z,1000.173
2019-03-20T20:42:50.490Z,1000.167
2019-03-20T20:44:50.472Z,1000.182
2019-03-20T20:46:49.794Z,1000.202
2019-03-20T20:48:49.838Z,1000.227
2019-03-20T20:50:49.911Z,1000.222
2019-03-20T20:52:49.990Z,1000.226
2019-03-20T20:54:50.056Z,1000.237
2019-03-20T20:56:50.226Z,1000.262
2019-03-20T20:58:50.273Z,1000.283
2019-03-20T21:00:50.381Z,1000.307
2019-03-20T21:02:50.576Z,1000.312
2019-03-20T21:04:50.016Z,1000.303
2019-03-20T21:06:50.315Z,1000.281
2019-03-20T21:08:50.341Z,1000.290
2019-03-20T21:10:50.366Z,1000.280
2019-03-20T21:12:57.750Z,1000.298
2019-03-20T21:14:49.822Z,1000.326
2019-03-20T21:16:49.999Z,1000.340
2019-03-20T21:18:50.115Z,1000.350
2019-03-20T21:20:50.103Z,1000.355
2019-03-20T21:22:50.220Z,1000.342
2019-03-20T21:24:50.260Z,1000.312
2019-03-20T21:26:50.517Z,1000.311
2019-03-20T21:28:50.526Z,1000.336
2019-03-20T21:30:50.596Z,1000.363
2019-03-20T21:32:49.602Z,1000.409
2019-03-20T21:34:50.020Z,1000.443
2019-03-20T21:36:50.261Z,1000.498
2019-03-20T21:38:51.750Z,1000.578
2019-03-20T21:40:49.752Z,1000.602
2019-03-20T21:42:49.886Z,1000.630
2019-03-20T21:44:49.926Z,1000.656
2019-03-20T21:46:50.158Z,1000.676
2019-03-20T21:48:50.218Z,1000.687
2019-03-20T21:50:50.381Z,1000.686
2019-03-20T21:52:50.251Z,1000.697
2019-03-20T21:54:50.450Z,1000.724
2019-03-20T21:56:50.383Z,1000.741
2019-03-20T21:58:50.341Z,1000.777
2019-03-20T22:00:50.380Z,1000.781
2019-03-20T22:02:50.280Z,1000.782
2019-03-20T22:04:49.656Z,1000.774
2019-03-20T22:06:49.914Z,1000.782
2019-03-20T22:08:49.646Z,1000.776
2019-03-20T22:10:49.762Z,1000.777
2019-03-20T22:12:49.880Z,1000.782
2019-03-20T22:14:50.006Z,1000.771
2019-03-20T22:16:50.144Z,1000.767
2019-03-20T22:18:50.189Z,1000.757
2019-03-20T22:20:50.505Z,1000.747
2019-03-20T22:22:50.477Z,1000.737
2019-03-20T22:24:50.554Z,1000.722
2019-03-20T22:26:49.790Z,1000.680
2019-03-20T22:28:50.559Z,1000.701
2019-03-20T22:30:50.577Z,1000.706
2019-03-20T22:32:49.762Z,1000.715
2019-03-20T22:34:50.198Z,1000.734
2019-03-20T22:36:50.381Z,1000.723
2019-03-20T22:38:50.305Z,1000.720
2019-03-20T22:40:50.198Z,1000.754
2019-03-20T22:42:50.104Z,1000.761
2019-03-20T22:44:49.946Z,1000.748
2019-03-20T22:46:50.086Z,1000.749
2019-03-20T22:48:49.947Z,1000.770
2019-03-20T22:50:49.719Z,1000.775
2019-03-20T22:52:49.634Z,1000.790
2019-03-20T22:54:50.477Z,1000.766
2019-03-20T22:56:50.455Z,1000.766
2019-03-20T22:58:50.391Z,1000.753
2019-03-20T23:00:50.270Z,1000.746
2019-03-20T23:02:50.220Z,1000.730
2019-03-20T23:04:50.558Z,1000.742
2019-03-20T23:06:49.737Z,1000.750
2019-03-20T23:08:49.638Z,1000.736
2019-03-20T23:10:49.646Z,1000.722
2019-03-20T23:12:50.487Z,1000.683
2019-03-20T23:14:50.370Z,1000.678
2019-03-20T23:16:50.380Z,1000.682
2019-03-20T23:18:50.231Z,1000.662
2019-03-20T23:20:50.113Z,1000.599
2019-03-20T23:22:49.995Z,1000.568
2019-03-20T23:24:49.865Z,1000.562
2019-03-20T23:26:50.043Z,1000.569
2019-03-20T23:28:49.951Z,1000.582
2019-03-20T23:30:49.860Z,1000.585
2019-03-20T23:32:49.799Z,1000.585
2019-03-20T23:34:50.073Z,1000.601
2019-03-20T23:36:50.102Z,1000.663
2019-03-20T23:38:50.051Z,1000.685
2019-03-20T23:40:49.997Z,1000.690
2019-03-20T23:42:49.887Z,1000.692
2019-03-20T23:44:49.802Z,1000.699
2019-03-20T23:46:49.830Z,1000.724
2019-03-20T23:48:49.874Z,1000.741
2019-03-20T23:50:49.776Z,1000.761
2019-03-20T23:52:49.658Z,1000.759
2019-03-20T23:54:50.475Z,1000.775
2019-03-20T23:56:50.459Z,1000.777
2019-03-20T23:58:50.277Z,1000.794
